#dbistima — V2PX5 — position and weather

sailwx.info

Track history (hours):
 
Tides and Currents Weather Stations Pressure Air Temp Water Temp Dewpoint Dewpoint Depression Visibility Wind Speed Wind Dir Waves Ship Positions

#dbistima

Last reported at 2016-Jul-01 02:27 UTC. Time now 2016-Jul-01 22:35 UTC.
Position N 58°18' E 005°32'.

MMSI: 304010972.

Date/timePositionNaut miles runAvg speedWind from/ knotsBaromVisibWave heightAir tempDewpointWater temp
2016-Jul-01 02:27N 58°18' E 005°32'2510.5
2016-Jul-01 00:05N 58°02' E 006°08'5 9.6
2016-Jun-30 23:32N 57°59' E 006°16'9 9.3
2016-Jun-30 22:33N 57°53' E 006°29'9 8.9
2016-Jun-30 21:33N 57°48' E 006°43'9 8.7
2016-Jun-30 20:33N 57°48' E 006°59'121 8.1
2016-Jun-30 05:33N 57°48' E 010°47'1110.2
2016-Jun-30 04:27N 57°41' E 011°02'910.2
2016-Jun-30 03:33N 57°34' E 011°15'9 9.3
2016-Jun-30 02:33N 57°28' E 011°27'10 9.5
2016-Jun-30 01:33N 57°18' E 011°32'23 9.3
2016-Jun-29 23:03N 56°56' E 011°46'5 9.3
2016-Jun-29 22:33N 56°52' E 011°49'10 9.7
2016-Jun-29 21:33N 56°43' E 011°55'30 9.3
2016-Jun-29 18:19N 56°15' E 012°14'7 9.6
2016-Jun-29 17:33N 56°11' E 012°25'1110.7
2016-Jun-29 16:33N 56°04' E 012°39'4 3.4
2016-Jun-29 15:31N 56°01' E 012°43'0 0.0
2016-Jun-29 14:31N 56°01' E 012°43'0 0.0
2016-Jun-29 13:31N 56°01' E 012°43'0 0.0
2016-Jun-29 12:31N 56°01' E 012°43'0 0.0
2016-Jun-29 11:31N 56°01' E 012°43'0 0.0
2016-Jun-29 10:31N 56°01' E 012°43'0 0.0
2016-Jun-29 09:31N 56°01' E 012°43'0 0.0
2016-Jun-29 08:31N 56°01' E 012°43'0 0.0
2016-Jun-29 07:31N 56°01' E 012°43'0 0.0
2016-Jun-29 06:31N 56°01' E 012°43'0 0.0
2016-Jun-29 05:31N 56°01' E 012°43'0 0.0
2016-Jun-29 04:31N 56°01' E 012°43'0 0.0
2016-Jun-29 03:31N 56°01' E 012°43'0 0.0
2016-Jun-29 02:31N 56°01' E 012°43'0 0.0
2016-Jun-29 01:31N 56°01' E 012°43'0 0.0
2016-Jun-29 00:31N 56°01' E 012°43'0 0.0
2016-Jun-28 23:31N 56°01' E 012°43'0 0.0
2016-Jun-28 22:31N 56°01' E 012°43'0 0.0
2016-Jun-28 21:31N 56°01' E 012°43'0 0.0
2016-Jun-28 20:31N 56°01' E 012°43'0 0.0
2016-Jun-28 19:31N 56°01' E 012°43'0 0.0
2016-Jun-28 18:31N 56°01' E 012°43'0 0.0
2016-Jun-28 17:31N 56°01' E 012°43'0 0.0
2016-Jun-28 16:31N 56°01' E 012°43'0 0.0
2016-Jun-28 15:31N 56°01' E 012°43'0 0.0
2016-Jun-28 14:31N 56°01' E 012°43'0 0.0
2016-Jun-28 13:28N 56°01' E 012°43'0 0.0
2016-Jun-28 12:31N 56°01' E 012°43'0 0.0
2016-Jun-28 11:31N 56°01' E 012°43'0 0.0
2016-Jun-28 10:31N 56°01' E 012°43'0 0.0
2016-Jun-28 09:31N 56°01' E 012°43'0 0.0
2016-Jun-28 08:31N 56°01' E 012°43'0 0.0
2016-Jun-28 07:31N 56°01' E 012°43'0 0.0
2016-Jun-28 06:31N 56°01' E 012°43'0 0.0
2016-Jun-28 04:31N 56°01' E 012°43'0 0.0
2016-Jun-28 03:31N 56°01' E 012°43'0 0.0
2016-Jun-28 02:31N 56°01' E 012°43'0 0.0
2016-Jun-28 01:28N 56°01' E 012°43'0 0.0
2016-Jun-28 00:31N 56°01' E 012°43'0 0.0
2016-Jun-27 23:31N 56°01' E 012°43'0 0.0
2016-Jun-27 22:31N 56°01' E 012°43'0 0.0
2016-Jun-27 21:31N 56°01' E 012°43'0 0.0
2016-Jun-27 20:31N 56°01' E 012°43'0 0.0
2016-Jun-27 19:31N 56°01' E 012°43'0 0.0
2016-Jun-27 18:31N 56°01' E 012°43'0 0.0
2016-Jun-27 17:31N 56°01' E 012°43'1 1.2
2016-Jun-27 16:34N 55°59' E 012°43'6 6.0
2016-Jun-27 15:33N 55°53' E 012°45'1110.6
2016-Jun-27 14:33N 55°43' E 012°41'1110.6
2016-Jun-27 13:34N 55°32' E 012°41'1110.9
2016-Jun-27 12:34N 55°29' E 012°23'7 6.5
2016-Jun-27 11:33N 55°27' E 012°12'0 0.0
2016-Jun-27 10:28N 55°27' E 012°12'0 0.0
2016-Jun-27 09:31N 55°27' E 012°12'0 0.0
2016-Jun-27 08:31N 55°27' E 012°12'0 0.0
2016-Jun-27 07:34N 55°27' E 012°12'0 0.0
2016-Jun-27 06:31N 55°27' E 012°12'0 0.0
2016-Jun-27 05:31N 55°27' E 012°12'0 0.0
2016-Jun-27 04:31N 55°27' E 012°12'0 0.0
2016-Jun-27 03:31N 55°27' E 012°12'0 0.0
2016-Jun-27 02:31N 55°27' E 012°12'0 0.0
2016-Jun-27 01:31N 55°27' E 012°12'0 0.0
2016-Jun-27 00:31N 55°27' E 012°12'0 0.0
2016-Jun-26 23:31N 55°27' E 012°12'0 0.0
2016-Jun-26 22:31N 55°27' E 012°12'0 0.0
2016-Jun-26 21:31N 55°27' E 012°12'0 0.0
2016-Jun-26 20:31N 55°27' E 012°12'0 0.0
2016-Jun-26 19:31N 55°27' E 012°12'0 0.0
2016-Jun-26 18:31N 55°27' E 012°12'0 0.0
2016-Jun-26 17:28N 55°27' E 012°12'0 0.0
2016-Jun-26 16:31N 55°27' E 012°12'0 0.0
2016-Jun-26 15:31N 55°27' E 012°12'0 0.0
2016-Jun-26 14:31N 55°27' E 012°12'0 0.0
2016-Jun-26 13:31N 55°27' E 012°12'0 0.0
2016-Jun-26 12:28N 55°27' E 012°12'0 0.0
2016-Jun-26 11:31N 55°27' E 012°12'0 0.0
2016-Jun-26 10:25N 55°27' E 012°12'0 0.0
2016-Jun-26 09:33N 55°27' E 012°12'0 0.0
2016-Jun-26 08:33N 55°27' E 012°12'0 0.0
2016-Jun-26 07:33N 55°27' E 012°12'0 0.0
2016-Jun-26 06:33N 55°27' E 012°12'2 2.0
2016-Jun-26 05:33N 55°28' E 012°15'9 8.7
2016-Jun-26 04:33N 55°29' E 012°30'8 7.8
2016-Jun-26 03:33N 55°33' E 012°42'8 8.0
2016-Jun-26 02:33N 55°41' E 012°41'9 8.6
2016-Jun-26 01:33N 55°50' E 012°42'9 8.6
2016-Jun-26 00:33N 55°58' E 012°38'8 7.8
2016-Jun-25 23:33N 56°05' E 012°34'9 8.8
2016-Jun-25 22:33N 56°11' E 012°22'9 9.0
2016-Jun-25 21:33N 56°16' E 012°08'27 8.8
2016-Jun-25 18:30N 56°42' E 011°54'9 9.1
2016-Jun-25 17:33N 56°50' E 011°50'9 9.2
2016-Jun-25 16:33N 56°58' E 011°44'9 9.4
2016-Jun-25 15:33N 57°07' E 011°38'9 9.0
2016-Jun-25 14:33N 57°16' E 011°32'9 9.3
2016-Jun-25 13:33N 57°25' E 011°27'9 9.0
2016-Jun-25 12:33N 57°32' E 011°16'9 9.5
2016-Jun-25 11:33N 57°38' E 011°03'9 8.8
2016-Jun-25 10:33N 57°44' E 010°51'9 9.0
2016-Jun-25 09:32N 57°47' E 010°35'10 9.9
2016-Jun-25 08:33N 57°47' E 010°17'1010.2
2016-Jun-25 07:33N 57°46' E 009°58'1110.5
2016-Jun-25 06:33N 57°45' E 009°38'107 9.6
2016-Jun-24 19:22N 57°50' E 006°17'8 9.3
2016-Jun-24 18:32N 57°55' E 006°06'1010.4
2016-Jun-24 17:33N 58°02' E 005°52'4310.3
2016-Jun-24 13:24N 58°37' E 005°04'910.4
2016-Jun-24 12:32N 58°46' E 004°59'1010.3
2016-Jun-24 11:33N 58°55' E 004°54'1010.1
2016-Jun-24 10:33N 59°05' E 004°48'10 9.8
2016-Jun-24 09:33N 59°14' E 004°43'78 9.5
2016-Jun-24 01:18N 60°31' E 005°15'79 3.1
2016-Jun-22 23:24N 59°13' E 004°43'910.4
2016-Jun-22 22:33N 59°04' E 004°44'1110.5
2016-Jun-22 21:32N 58°54' E 004°46'1110.5
2016-Jun-22 20:27N 58°42' E 004°48'910.0
2016-Jun-22 19:34N 58°33' E 004°50'1010.0
2016-Jun-22 18:34N 58°23' E 004°52'24310.9
2016-Jun-21 20:13N 54°21' E 005°11'710.7
2016-Jun-21 19:33N 54°13' E 005°11'1110.9
2016-Jun-21 18:33N 54°03' E 005°07'1111.2
2016-Jun-21 17:33N 53°52' E 005°01'1111.4
2016-Jun-21 16:32N 53°42' E 004°54'3310.9
2016-Jun-21 13:29N 53°11' E 004°31'1310.5
2016-Jun-21 12:13N 52°59' E 004°22'710.3
2016-Jun-21 11:34N 52°53' E 004°17'7510.2
2016-Jun-21 04:14N 51°48' E 003°17'7 9.8
2016-Jun-21 03:30N 51°41' E 003°19'1112.0
2016-Jun-21 02:33N 51°31' E 003°27'  
Track history (hours):
 
Tides and Currents Weather Stations Pressure Air Temp Water Temp Dewpoint Dewpoint Depression Visibility Wind Speed Wind Dir Waves Ship Positions

#dbistima

Last reported at 2016-Jul-01 02:27 UTC. Time now 2016-Jul-01 22:35 UTC.
Position N 58°18' E 005°32'.

MMSI: 304010972.

Date/timePositionNaut miles runAvg speedWind from/ knotsBaromVisibWave heightAir tempDewpointWater temp
2016-Jul-01 02:27N 58°18' E 005°32'2510.5
2016-Jul-01 00:05N 58°02' E 006°08'5 9.6
2016-Jun-30 23:32N 57°59' E 006°16'9 9.3
2016-Jun-30 22:33N 57°53' E 006°29'9 8.9
2016-Jun-30 21:33N 57°48' E 006°43'9 8.7
2016-Jun-30 20:33N 57°48' E 006°59'121 8.1
2016-Jun-30 05:33N 57°48' E 010°47'1110.2
2016-Jun-30 04:27N 57°41' E 011°02'910.2
2016-Jun-30 03:33N 57°34' E 011°15'9 9.3
2016-Jun-30 02:33N 57°28' E 011°27'10 9.5
2016-Jun-30 01:33N 57°18' E 011°32'23 9.3
2016-Jun-29 23:03N 56°56' E 011°46'5 9.3
2016-Jun-29 22:33N 56°52' E 011°49'10 9.7
2016-Jun-29 21:33N 56°43' E 011°55'30 9.3
2016-Jun-29 18:19N 56°15' E 012°14'7 9.6
2016-Jun-29 17:33N 56°11' E 012°25'1110.7
2016-Jun-29 16:33N 56°04' E 012°39'4 3.4
2016-Jun-29 15:31N 56°01' E 012°43'0 0.0
2016-Jun-29 14:31N 56°01' E 012°43'0 0.0
2016-Jun-29 13:31N 56°01' E 012°43'0 0.0
2016-Jun-29 12:31N 56°01' E 012°43'0 0.0
2016-Jun-29 11:31N 56°01' E 012°43'0 0.0
2016-Jun-29 10:31N 56°01' E 012°43'0 0.0
2016-Jun-29 09:31N 56°01' E 012°43'0 0.0
2016-Jun-29 08:31N 56°01' E 012°43'0 0.0
2016-Jun-29 07:31N 56°01' E 012°43'0 0.0
2016-Jun-29 06:31N 56°01' E 012°43'0 0.0
2016-Jun-29 05:31N 56°01' E 012°43'0 0.0
2016-Jun-29 04:31N 56°01' E 012°43'0 0.0
2016-Jun-29 03:31N 56°01' E 012°43'0 0.0
2016-Jun-29 02:31N 56°01' E 012°43'0 0.0
2016-Jun-29 01:31N 56°01' E 012°43'0 0.0
2016-Jun-29 00:31N 56°01' E 012°43'0 0.0
2016-Jun-28 23:31N 56°01' E 012°43'0 0.0
2016-Jun-28 22:31N 56°01' E 012°43'0 0.0
2016-Jun-28 21:31N 56°01' E 012°43'0 0.0
2016-Jun-28 20:31N 56°01' E 012°43'0 0.0
2016-Jun-28 19:31N 56°01' E 012°43'0 0.0
2016-Jun-28 18:31N 56°01' E 012°43'0 0.0
2016-Jun-28 17:31N 56°01' E 012°43'0 0.0
2016-Jun-28 16:31N 56°01' E 012°43'0 0.0
2016-Jun-28 15:31N 56°01' E 012°43'0 0.0
2016-Jun-28 14:31N 56°01' E 012°43'0 0.0
2016-Jun-28 13:28N 56°01' E 012°43'0 0.0
2016-Jun-28 12:31N 56°01' E 012°43'0 0.0
2016-Jun-28 11:31N 56°01' E 012°43'0 0.0
2016-Jun-28 10:31N 56°01' E 012°43'0 0.0
2016-Jun-28 09:31N 56°01' E 012°43'0 0.0
2016-Jun-28 08:31N 56°01' E 012°43'0 0.0
2016-Jun-28 07:31N 56°01' E 012°43'0 0.0
2016-Jun-28 06:31N 56°01' E 012°43'0 0.0
2016-Jun-28 04:31N 56°01' E 012°43'0 0.0
2016-Jun-28 03:31N 56°01' E 012°43'0 0.0
2016-Jun-28 02:31N 56°01' E 012°43'0 0.0
2016-Jun-28 01:28N 56°01' E 012°43'0 0.0
2016-Jun-28 00:31N 56°01' E 012°43'0 0.0
2016-Jun-27 23:31N 56°01' E 012°43'0 0.0
2016-Jun-27 22:31N 56°01' E 012°43'0 0.0
2016-Jun-27 21:31N 56°01' E 012°43'0 0.0
2016-Jun-27 20:31N 56°01' E 012°43'0 0.0
2016-Jun-27 19:31N 56°01' E 012°43'0 0.0
2016-Jun-27 18:31N 56°01' E 012°43'0 0.0
2016-Jun-27 17:31N 56°01' E 012°43'1 1.2
2016-Jun-27 16:34N 55°59' E 012°43'6 6.0
2016-Jun-27 15:33N 55°53' E 012°45'1110.6
2016-Jun-27 14:33N 55°43' E 012°41'1110.6
2016-Jun-27 13:34N 55°32' E 012°41'1110.9
2016-Jun-27 12:34N 55°29' E 012°23'7 6.5
2016-Jun-27 11:33N 55°27' E 012°12'0 0.0
2016-Jun-27 10:28N 55°27' E 012°12'0 0.0
2016-Jun-27 09:31N 55°27' E 012°12'0 0.0
2016-Jun-27 08:31N 55°27' E 012°12'0 0.0
2016-Jun-27 07:34N 55°27' E 012°12'0 0.0
2016-Jun-27 06:31N 55°27' E 012°12'0 0.0
2016-Jun-27 05:31N 55°27' E 012°12'0 0.0
2016-Jun-27 04:31N 55°27' E 012°12'0 0.0
2016-Jun-27 03:31N 55°27' E 012°12'0 0.0
2016-Jun-27 02:31N 55°27' E 012°12'0 0.0
2016-Jun-27 01:31N 55°27' E 012°12'0 0.0
2016-Jun-27 00:31N 55°27' E 012°12'0 0.0
2016-Jun-26 23:31N 55°27' E 012°12'0 0.0
2016-Jun-26 22:31N 55°27' E 012°12'0 0.0
2016-Jun-26 21:31N 55°27' E 012°12'0 0.0
2016-Jun-26 20:31N 55°27' E 012°12'0 0.0
2016-Jun-26 19:31N 55°27' E 012°12'0 0.0
2016-Jun-26 18:31N 55°27' E 012°12'0 0.0
2016-Jun-26 17:28N 55°27' E 012°12'0 0.0
2016-Jun-26 16:31N 55°27' E 012°12'0 0.0
2016-Jun-26 15:31N 55°27' E 012°12'0 0.0
2016-Jun-26 14:31N 55°27' E 012°12'0 0.0
2016-Jun-26 13:31N 55°27' E 012°12'0 0.0
2016-Jun-26 12:28N 55°27' E 012°12'0 0.0
2016-Jun-26 11:31N 55°27' E 012°12'0 0.0
2016-Jun-26 10:25N 55°27' E 012°12'0 0.0
2016-Jun-26 09:33N 55°27' E 012°12'0 0.0
2016-Jun-26 08:33N 55°27' E 012°12'0 0.0
2016-Jun-26 07:33N 55°27' E 012°12'0 0.0
2016-Jun-26 06:33N 55°27' E 012°12'2 2.0
2016-Jun-26 05:33N 55°28' E 012°15'9 8.7
2016-Jun-26 04:33N 55°29' E 012°30'8 7.8
2016-Jun-26 03:33N 55°33' E 012°42'8 8.0
2016-Jun-26 02:33N 55°41' E 012°41'9 8.6
2016-Jun-26 01:33N 55°50' E 012°42'9 8.6
2016-Jun-26 00:33N 55°58' E 012°38'8 7.8
2016-Jun-25 23:33N 56°05' E 012°34'9 8.8
2016-Jun-25 22:33N 56°11' E 012°22'9 9.0
2016-Jun-25 21:33N 56°16' E 012°08'27 8.8
2016-Jun-25 18:30N 56°42' E 011°54'9 9.1
2016-Jun-25 17:33N 56°50' E 011°50'9 9.2
2016-Jun-25 16:33N 56°58' E 011°44'9 9.4
2016-Jun-25 15:33N 57°07' E 011°38'9 9.0
2016-Jun-25 14:33N 57°16' E 011°32'9 9.3
2016-Jun-25 13:33N 57°25' E 011°27'9 9.0
2016-Jun-25 12:33N 57°32' E 011°16'9 9.5
2016-Jun-25 11:33N 57°38' E 011°03'9 8.8
2016-Jun-25 10:33N 57°44' E 010°51'9 9.0
2016-Jun-25 09:32N 57°47' E 010°35'10 9.9
2016-Jun-25 08:33N 57°47' E 010°17'1010.2
2016-Jun-25 07:33N 57°46' E 009°58'1110.5
2016-Jun-25 06:33N 57°45' E 009°38'107 9.6
2016-Jun-24 19:22N 57°50' E 006°17'8 9.3
2016-Jun-24 18:32N 57°55' E 006°06'1010.4
2016-Jun-24 17:33N 58°02' E 005°52'4310.3
2016-Jun-24 13:24N 58°37' E 005°04'910.4
2016-Jun-24 12:32N 58°46' E 004°59'1010.3
2016-Jun-24 11:33N 58°55' E 004°54'1010.1
2016-Jun-24 10:33N 59°05' E 004°48'10 9.8
2016-Jun-24 09:33N 59°14' E 004°43'78 9.5
2016-Jun-24 01:18N 60°31' E 005°15'79 3.1
2016-Jun-22 23:24N 59°13' E 004°43'910.4
2016-Jun-22 22:33N 59°04' E 004°44'1110.5
2016-Jun-22 21:32N 58°54' E 004°46'1110.5
2016-Jun-22 20:27N 58°42' E 004°48'910.0
2016-Jun-22 19:34N 58°33' E 004°50'1010.0
2016-Jun-22 18:34N 58°23' E 004°52'24310.9
2016-Jun-21 20:13N 54°21' E 005°11'710.7
2016-Jun-21 19:33N 54°13' E 005°11'1110.9
2016-Jun-21 18:33N 54°03' E 005°07'1111.2
2016-Jun-21 17:33N 53°52' E 005°01'1111.4
2016-Jun-21 16:32N 53°42' E 004°54'3310.9
2016-Jun-21 13:29N 53°11' E 004°31'1310.5
2016-Jun-21 12:13N 52°59' E 004°22'710.3
2016-Jun-21 11:34N 52°53' E 004°17'7510.2
2016-Jun-21 04:14N 51°48' E 003°17'7 9.8
2016-Jun-21 03:30N 51°41' E 003°19'1112.0
2016-Jun-21 02:33N 51°31' E 003°27'  

Dump ship's entire track history